SondeTracker

Meteorological Radiosondes Database

Operations

Sounding was ended - last measurement: 2022-12-07 13:13:51z

MAP
About Radiosonde

Number: U2450582

Launch Site: Boise [ID] (US)

Type: RS41

AUX: NO

Frequency: 404.800 MHz

Max Speed: 78 km/h at 20767 m

Average Speed: 36.21 km/h

Max Altitude: 27132 m

Average Ascent Speed: 4.51 m/s

Average Descent Speed: 12.15 m/s

Status: UNKNOWN

Status Changes
Launch Site Type AUX Frequency Status Finder Landing Point Description Changes made by
APRS Statistics

Received Frames: 70

First Frame [UTC]: 2022-12-07 11:15:11z

Last Frame [UTC]: 2022-12-07 13:13:51z

Receivers: N7ZDX-2

Flight Time: 01:58:40 h

Distance From First Measurement: 49.18 km

Nearest City: Mountain Home [ID] (US) [32.09 km]

Nearest Hunter: [0.00 km]

Ground Altitude: 1521 m

Distance from QTH: 0.00 km

APRS Data
Receiver Number Date/Time [UTC] φ λ Course [°] Speed [km/h] Altitude [m] Description
N7ZDX-2U24505822022-12-07 13:13:5143.4164-115.62638132164Clb=-5.8m/s t=-6.6C h=80.2% p=-1.0hPa 404.800 MHz Type=RS41-NG ser=U2450582 Radiosonde
N7ZDX-2U24505822022-12-07 13:13:4443.4161-115.62740132221Clb=-5.1m/s t=-7.2C h=83.9% p=-1.0hPa 404.800 MHz Type=RS41-NG ser=U2450582 Radiosonde
N7ZDX-2U24505822022-12-07 13:12:5543.415-115.62910362578Clb=-5.9m/s t=-7.1C h=52.4% p=-1.0hPa 404.800 MHz Type=RS41-NG ser=U2450582 Radiosonde
N7ZDX-2U24505822022-12-07 13:12:0543.4156-115.631103112925Clb=-5.7m/s t=-8.9C h=57.5% p=-1.0hPa 404.800 MHz Type=RS41-NG ser=U2450582 Radiosonde
N7ZDX-2U24505822022-12-07 13:11:1243.4157-115.6337493282Clb=-5.5m/s t=-9.7C h=35.1% p=-1.0hPa 404.800 MHz Type=RS41-NG ser=U2450582 Radiosonde
N7ZDX-2U24505822022-12-07 13:10:1843.4155-115.63411563640Clb=-5.9m/s t=-10.5C h=24.1% p=-1.0hPa 404.800 MHz Type=RS41-NG ser=U2450582 Radiosonde
N7ZDX-2U24505822022-12-07 13:06:5443.4192-115.639133134988Clb=-6.7m/s t=-21.1C h=25.9% p=-1.0hPa 404.800 MHz Type=RS41-NG ser=U2450582 Radiosonde
N7ZDX-2U24505822022-12-07 13:05:4143.4201-115.6417275249Clb=-6.9m/s t=-22.6C h=24.9% p=-1.0hPa 404.800 MHz Type=RS41-NG ser=U2450582 Radiosonde
N7ZDX-2U24505822022-12-07 13:04:1943.4211-115.64110545646Clb=-7.5m/s t=-25.0C h=17.9% p=-1.0hPa 404.800 MHz Type=RS41-NG ser=U2450582 Radiosonde
N7ZDX-2U24505822022-12-07 13:03:0443.4219-115.64118446091Clb=-7.0m/s t=-27.8C h=16.4% p=-1.0hPa 404.800 MHz Type=RS41-NG ser=U2450582 Radiosonde
N7ZDX-2U24505822022-12-07 13:01:4043.4225-115.641228116562Clb=-8.2m/s t=-30.4C h=22.3% p=-1.0hPa 404.800 MHz Type=RS41-NG ser=U2450582 Radiosonde
N7ZDX-2U24505822022-12-07 12:59:5943.4237-115.636260267020Clb=-8.5m/s t=-32.4C h=20.7% p=-1.0hPa 404.800 MHz Type=RS41-NG ser=U2450582 Radiosonde
N7ZDX-2U24505822022-12-07 12:58:5843.423-115.63285307525Clb=-7.9m/s t=-36.7C h=26.7% p=-1.0hPa 404.800 MHz Type=RS41-NG ser=U2450582 Radiosonde
N7ZDX-2U24505822022-12-07 12:57:5743.4219-115.6042352010145Clb=-11.2m/s t=-57.5C h=35.1% p=-1.0hPa 404.800 MHz Type=RS41-NG ser=U2450582 Radiosonde
N7ZDX-2U24505822022-12-07 12:57:5343.4239-115.6022073310443Clb=-7.6m/s t=-59.2C h=33.3% p=-1.0hPa 404.800 MHz Type=RS41-NG ser=U2450582 Radiosonde
N7ZDX-2U24505822022-12-07 12:57:4943.4271-115.599293911032Clb=-10.4m/s t=-61.0C h=21.7% p=-1.0hPa 404.800 MHz Type=RS41-NG ser=U2450582 Radiosonde
N7ZDX-2U24505822022-12-07 12:57:4543.427-115.6412411715Clb=-11.1m/s t=-56.5C h=5.1% p=-1.0hPa 404.800 MHz Type=RS41-NG ser=U2450582 Radiosonde
N7ZDX-2U24505822022-12-07 12:57:0443.4242-115.606733112407Clb=-12.9m/s t=-58.0C h=3.5% p=-1.0hPa 404.800 MHz Type=RS41-NG ser=U2450582 Radiosonde
N7ZDX-2U24505822022-12-07 12:55:1643.423-115.614604813117Clb=-11.0m/s t=-57.6C h=2.5% p=-1.0hPa 404.800 MHz Type=RS41-NG ser=U2450582 Radiosonde
N7ZDX-2U24505822022-12-07 12:53:3643.4208-115.624914313844Clb=-15.7m/s t=-56.8C h=2.1% p=-1.0hPa 404.800 MHz Type=RS41-NG ser=U2450582 Radiosonde
N7ZDX-2U24505822022-12-07 12:51:3543.4197-115.636825214672Clb=-11.9m/s t=-55.2C h=1.8% p=-1.0hPa 404.800 MHz Type=RS41-NG ser=U2450582 Radiosonde
N7ZDX-2U24505822022-12-07 12:49:4843.4188-115.647924815514Clb=-15.2m/s t=-56.6C h=1.8% p=-1.0hPa 404.800 MHz Type=RS41-NG ser=U2450582 Radiosonde
N7ZDX-2U24505822022-12-07 12:47:5043.4179-115.658816316403Clb=-14.8m/s t=-58.4C h=2.0% p=-1.0hPa 404.800 MHz Type=RS41-NG ser=U2450582 Radiosonde
N7ZDX-2U24505822022-12-07 12:45:5143.4184-115.6691015017312Clb=-15.6m/s t=-60.5C h=2.0% p=-1.0hPa 404.800 MHz Type=RS41-NG ser=U2450582 Radiosonde
N7ZDX-2U24505822022-12-07 12:44:0043.4217-115.6781304318295Clb=-15.9m/s t=-60.3C h=1.9% p=-1.0hPa 404.800 MHz Type=RS41-NG ser=U2450582 Radiosonde
N7ZDX-2U24505822022-12-07 12:42:5443.4233-115.6851053019270Clb=-15.2m/s t=-62.0C h=1.8% p=-1.0hPa 404.800 MHz Type=RS41-NG ser=U2450582 Radiosonde
N7ZDX-2U24505822022-12-07 12:41:4043.4249-115.691925020259Clb=-18.2m/s t=-63.6C h=1.8% p=-1.0hPa 404.800 MHz Type=RS41-NG ser=U2450582 Radiosonde
N7ZDX-2U24505822022-12-07 12:39:3643.4594-115.8141016127132Clb=6.7m/s t=-60.4C h=1.4% p=-1.0hPa 404.800 MHz Type=RS41-NG ser=U2450582 Radiosonde
N7ZDX-2U24505822022-12-07 12:37:1243.4632-115.8251386526774Clb=2.1m/s t=-59.7C h=1.3% p=-1.0hPa 404.800 MHz Type=RS41-NG ser=U2450582 Radiosonde
N7ZDX-2U24505822022-12-07 12:34:4643.4651-115.8371244326407Clb=8.9m/s t=-59.1C h=1.3% p=-1.0hPa 404.800 MHz Type=RS41-NG ser=U2450582 Radiosonde
N7ZDX-2U24505822022-12-07 12:32:2443.4701-115.8451206526034Clb=6.7m/s t=-60.2C h=1.4% p=-1.0hPa 404.800 MHz Type=RS41-NG ser=U2450582 Radiosonde
N7ZDX-2U24505822022-12-07 12:29:5443.4738-115.8581126525660Clb=7.2m/s t=-61.6C h=1.5% p=-1.0hPa 404.800 MHz Type=RS41-NG ser=U2450582 Radiosonde
N7ZDX-2U24505822022-12-07 12:27:2343.478-115.8721186925276Clb=8.2m/s t=-60.2C h=1.4% p=-1.0hPa 404.800 MHz Type=RS41-NG ser=U2450582 Radiosonde
N7ZDX-2U24505822022-12-07 12:24:5043.4833-115.8851166724899Clb=7.1m/s t=-60.3C h=1.4% p=-1.0hPa 404.800 MHz Type=RS41-NG ser=U2450582 Radiosonde
N7ZDX-2U24505822022-12-07 12:23:2943.4879-115.8981065424558Clb=6.8m/s t=-62.8C h=1.6% p=-1.0hPa 404.800 MHz Type=RS41-NG ser=U2450582 Radiosonde
N7ZDX-2U24505822022-12-07 12:22:4343.4894-115.909995024211Clb=4.3m/s t=-60.9C h=1.4% p=-1.0hPa 404.800 MHz Type=RS41-NG ser=U2450582 Radiosonde
N7ZDX-2U24505822022-12-07 12:21:1443.5201-115.9921077820767Clb=4.7m/s t=-61.0C h=1.5% p=-1.0hPa 404.800 MHz Type=RS41-NG ser=U2450582 Radiosonde
N7ZDX-2U24505822022-12-07 12:18:5743.5229-116.0031184620459Clb=3.8m/s t=-62.1C h=1.8% p=-1.0hPa 404.800 MHz Type=RS41-NG ser=U2450582 Radiosonde
N7ZDX-2U24505822022-12-07 12:16:5343.524-116.013794420153Clb=4.5m/s t=-62.6C h=1.8% p=-1.0hPa 404.800 MHz Type=RS41-NG ser=U2450582 Radiosonde
N7ZDX-2U24505822022-12-07 12:15:0243.5247-116.0191072819839Clb=6.4m/s t=-61.0C h=1.8% p=-1.0hPa 404.800 MHz Type=RS41-NG ser=U2450582 Radiosonde
N7ZDX-2U24505822022-12-07 12:12:5843.5286-116.0231504319522Clb=6.3m/s t=-63.0C h=1.9% p=-1.0hPa 404.800 MHz Type=RS41-NG ser=U2450582 Radiosonde
N7ZDX-2U24505822022-12-07 12:10:4243.5326-116.0291304119208Clb=3.2m/s t=-61.8C h=1.9% p=-1.0hPa 404.800 MHz Type=RS41-NG ser=U2450582 Radiosonde
N7ZDX-2U24505822022-12-07 12:08:2243.5352-116.0361144118897Clb=4.4m/s t=-62.0C h=2.0% p=-1.0hPa 404.800 MHz Type=RS41-NG ser=U2450582 Radiosonde
N7ZDX-2U24505822022-12-07 12:06:1143.5387-116.0441275218539Clb=5.5m/s t=-62.6C h=2.0% p=-1.0hPa 404.800 MHz Type=RS41-NG ser=U2450582 Radiosonde
N7ZDX-2U24505822022-12-07 12:04:0143.542-116.0531095718226Clb=6.6m/s t=-60.5C h=1.9% p=-1.0hPa 404.800 MHz Type=RS41-NG ser=U2450582 Radiosonde
N7ZDX-2U24505822022-12-07 12:03:0343.5457-116.0621225017914Clb=6.2m/s t=-61.8C h=2.1% p=-1.0hPa 404.800 MHz Type=RS41-NG ser=U2450582 Radiosonde
N7ZDX-2U24505822022-12-07 12:02:4543.5503-116.09994316983Clb=6.1m/s t=-60.9C h=2.1% p=-1.0hPa 404.800 MHz Type=RS41-NG ser=U2450582 Radiosonde
N7ZDX-2U24505822022-12-07 12:01:5843.5511-116.1874316670Clb=5.3m/s t=-59.6C h=2.0% p=-1.0hPa 404.800 MHz Type=RS41-NG ser=U2450582 Radiosonde
N7ZDX-2U24505822022-12-07 12:01:4943.5501-116.11765616366Clb=6.2m/s t=-57.7C h=1.7% p=-1.0hPa 404.800 MHz Type=RS41-NG ser=U2450582 Radiosonde
N7ZDX-2U24505822022-12-07 12:01:4243.5476-116.12596116049Clb=5.0m/s t=-55.9C h=1.7% p=-1.0hPa 404.800 MHz Type=RS41-NG ser=U2450582 Radiosonde
N7ZDX-2U24505822022-12-07 11:59:5543.5453-116.131673715740Clb=4.2m/s t=-56.6C h=1.7% p=-1.0hPa 404.800 MHz Type=RS41-NG ser=U2450582 Radiosonde
N7ZDX-2U24505822022-12-07 11:57:4443.548-116.1411105015439Clb=5.9m/s t=-56.3C h=1.7% p=-1.0hPa 404.800 MHz Type=RS41-NG ser=U2450582 Radiosonde
N7ZDX-2U24505822022-12-07 11:55:3543.5495-116.1531077015127Clb=2.5m/s t=-56.7C h=1.8% p=-1.0hPa 404.800 MHz Type=RS41-NG ser=U2450582 Radiosonde
N7ZDX-2U24505822022-12-07 11:53:3843.5511-116.166966114842Clb=4.5m/s t=-56.6C h=1.9% p=-1.0hPa 404.800 MHz Type=RS41-NG ser=U2450582 Radiosonde
N7ZDX-2U24505822022-12-07 11:51:4943.5513-116.18817214564Clb=4.0m/s t=-58.5C h=2.3% p=-1.0hPa 404.800 MHz Type=RS41-NG ser=U2450582 Radiosonde
N7ZDX-2U24505822022-12-07 11:40:3743.5457-116.2572223710849Clb=3.8m/s t=-61.3C h=35.1% p=-1.0hPa 404.800 MHz Type=RS41-NG ser=U2450582 Radiosonde
N7ZDX-2U24505822022-12-07 11:39:0243.5488-116.2542082610633Clb=4.1m/s t=-60.1C h=35.2% p=-1.0hPa 404.800 MHz Type=RS41-NG ser=U2450582 Radiosonde
N7ZDX-2U24505822022-12-07 11:37:0243.5519-116.252041510359Clb=4.9m/s t=-58.2C h=32.6% p=-1.0hPa 404.800 MHz Type=RS41-NG ser=U2450582 Radiosonde
N7ZDX-2U24505822022-12-07 11:35:3343.5537-116.2482371110053Clb=3.7m/s t=-56.5C h=32.5% p=-1.0hPa 404.800 MHz Type=RS41-NG ser=U2450582 Radiosonde
N7ZDX-2U24505822022-12-07 11:34:4243.5535-116.244297179784Clb=5.2m/s t=-54.1C h=27.1% p=-1.0hPa 404.800 MHz Type=RS41-NG ser=U2450582 Radiosonde
N7ZDX-2U24505822022-12-07 11:34:2543.5535-116.24250249522Clb=3.8m/s t=-51.7C h=21.8% p=-1.0hPa 404.800 MHz Type=RS41-NG ser=U2450582 Radiosonde
N7ZDX-2U24505822022-12-07 11:32:4643.5543-116.235258249258Clb=3.9m/s t=-49.9C h=22.0% p=-1.0hPa 404.800 MHz Type=RS41-NG ser=U2450582 Radiosonde
N7ZDX-2U24505822022-12-07 11:31:2843.5545-116.23272158980Clb=5.5m/s t=-47.8C h=23.7% p=-1.0hPa 404.800 MHz Type=RS41-NG ser=U2450582 Radiosonde
N7ZDX-2U24505822022-12-07 11:30:2743.5557-116.225255248686Clb=3.8m/s t=-45.5C h=19.4% p=-1.0hPa 404.800 MHz Type=RS41-NG ser=U2450582 Radiosonde
N7ZDX-2U24505822022-12-07 11:29:5143.5569-116.22273338386Clb=5.7m/s t=-43.6C h=25.9% p=-1.0hPa 404.800 MHz Type=RS41-NG ser=U2450582 Radiosonde
N7ZDX-2U24505822022-12-07 11:28:3343.5569-116.215262308103Clb=3.5m/s t=-41.1C h=21.7% p=-1.0hPa 404.800 MHz Type=RS41-NG ser=U2450582 Radiosonde
N7ZDX-2U24505822022-12-07 11:27:2443.5567-116.21252177832Clb=4.3m/s t=-39.0C h=28.2% p=-1.0hPa 404.800 MHz Type=RS41-NG ser=U2450582 Radiosonde
N7ZDX-2U24505822022-12-07 11:26:2343.5565-116.205283337572Clb=3.5m/s t=-273.0C h=-1.0% p=-1.0hPa 404.800 MHz Type=RS41-NG ser=U2450582 Radiosonde
N7ZDX-2U24505822022-12-07 11:16:1343.5696-116.1976094531Clb=7.0m/s t=-273.0C h=-1.0% p=-1.0hPa 404.800 MHz Type=RS41-NG ser=U2450582 Radiosonde
N7ZDX-2U24505822022-12-07 11:15:1143.5694-116.19840114288Clb=5.9m/s t=-273.0C h=-1.0% p=-1.0hPa 404.800 MHz Type=RS41 ser=U2450582 Radiosonde